MQT583 CYQB-KJFK
Flight info
| Callsign | MQT583 |
|---|---|
| Flight time | 1h 20m |
| Altitude | 36000 |
| Route | PENTU Q824 CATOG DCT PONCT PUCKY1 |
| Aircraft | A320/M-SDE3FGHIRWY/LB1 |
Departure
| Time | 2026-05-08 17:42 |
|---|---|
| Airport | Quebec Jean Lesage International Airport (CYQB) |
Arrival
| Time | 2026-05-08 19:02 |
|---|---|
| Airport | John F. Kennedy International Airport (KJFK) |
| Time | Latitude | Longitude | Altitude | Speed | Heading |
|---|---|---|---|---|---|
| 2026-05-08 17:02 | 46.79174 | -71.38491 | 244 ft | 0 kts | 101° |
| 2026-05-08 17:25 | 46.79175 | -71.38495 | 244 ft | 3 kts | 101° |
| 2026-05-08 17:25 | 46.79179 | -71.38533 | 244 ft | 4 kts | 95° |
| 2026-05-08 17:25 | 46.79180 | -71.38572 | 244 ft | 4 kts | 78° |
| 2026-05-08 17:26 | 46.79170 | -71.38602 | 244 ft | 4 kts | 20° |
| 2026-05-08 17:26 | 46.79166 | -71.38604 | 244 ft | 0 kts | 11° |
| 2026-05-08 17:30 | 46.79167 | -71.38604 | 244 ft | 0 kts | 11° |
| 2026-05-08 17:30 | 46.79192 | -71.38596 | 244 ft | 8 kts | 11° |
| 2026-05-08 17:31 | 46.79259 | -71.38576 | 244 ft | 11 kts | 11° |
| 2026-05-08 17:31 | 46.79309 | -71.38562 | 244 ft | 4 kts | 11° |
| 2026-05-08 17:31 | 46.79343 | -71.38552 | 244 ft | 6 kts | 9° |
| 2026-05-08 17:31 | 46.79394 | -71.38570 | 244 ft | 9 kts | 335° |
| 2026-05-08 17:32 | 46.79453 | -71.38539 | 244 ft | 10 kts | 42° |
| 2026-05-08 17:32 | 46.79506 | -71.38462 | 244 ft | 12 kts | 45° |
| 2026-05-08 17:32 | 46.79562 | -71.38367 | 244 ft | 11 kts | 65° |
| 2026-05-08 17:32 | 46.79601 | -71.38258 | 243 ft | 13 kts | 44° |
| 2026-05-08 17:33 | 46.79674 | -71.38155 | 243 ft | 16 kts | 45° |
| 2026-05-08 17:33 | 46.79757 | -71.38055 | 243 ft | 12 kts | 22° |
| 2026-05-08 17:33 | 46.79785 | -71.38049 | 243 ft | 0 kts | 359° |
| 2026-05-08 17:36 | 46.79787 | -71.38049 | 243 ft | 1 kts | 359° |
| 2026-05-08 17:36 | 46.79818 | -71.38048 | 244 ft | 9 kts | 0° |
| 2026-05-08 17:37 | 46.79875 | -71.38048 | 244 ft | 0 kts | 0° |
| 2026-05-08 17:40 | 46.79876 | -71.38048 | 244 ft | 1 kts | 0° |
| 2026-05-08 17:40 | 46.79928 | -71.38057 | 244 ft | 12 kts | 336° |
| 2026-05-08 17:41 | 46.79969 | -71.38137 | 245 ft | 7 kts | 261° |
| 2026-05-08 17:41 | 46.79952 | -71.38175 | 245 ft | 0 kts | 225° |
| 2026-05-08 17:41 | 46.79951 | -71.38176 | 245 ft | 2 kts | 225° |
| 2026-05-08 17:42 | 46.79819 | -71.38370 | 244 ft | 63 kts | 225° |
| 2026-05-08 17:42 | 46.79352 | -71.39039 | 246 ft | 122 kts | 225° |
| 2026-05-08 17:42 | 46.78657 | -71.40048 | 483 ft | 146 kts | 227° |
| 2026-05-08 17:42 | 46.77935 | -71.41027 | 1278 ft | 139 kts | 224° |
| 2026-05-08 17:43 | 46.77220 | -71.41939 | 2027 ft | 137 kts | 224° |
| 2026-05-08 17:43 | 46.76482 | -71.42928 | 2399 ft | 156 kts | 228° |
| 2026-05-08 17:43 | 46.75663 | -71.44132 | 2677 ft | 178 kts | 227° |
| 2026-05-08 17:43 | 46.74736 | -71.45512 | 2965 ft | 203 kts | 228° |
| 2026-05-08 17:44 | 46.73684 | -71.47070 | 3384 ft | 228 kts | 227° |
| 2026-05-08 17:44 | 46.72515 | -71.48785 | 3981 ft | 246 kts | 227° |
| 2026-05-08 17:44 | 46.71284 | -71.50576 | 4861 ft | 253 kts | 227° |
| 2026-05-08 17:44 | 46.70019 | -71.52398 | 5808 ft | 257 kts | 227° |
| 2026-05-08 17:45 | 46.68737 | -71.54241 | 6752 ft | 261 kts | 227° |
| 2026-05-08 17:45 | 46.67420 | -71.56131 | 7712 ft | 265 kts | 226° |
| 2026-05-08 17:45 | 46.66097 | -71.58028 | 8665 ft | 269 kts | 226° |
| 2026-05-08 17:45 | 46.64755 | -71.59951 | 9676 ft | 272 kts | 226° |
| 2026-05-08 17:46 | 46.63385 | -71.61917 | 10447 ft | 285 kts | 227° |
| 2026-05-08 17:46 | 46.61936 | -71.63999 | 10830 ft | 308 kts | 226° |
| 2026-05-08 17:46 | 46.60376 | -71.66241 | 11457 ft | 320 kts | 226° |
| 2026-05-08 17:46 | 46.58781 | -71.68526 | 12273 ft | 324 kts | 226° |
| 2026-05-08 17:47 | 46.57161 | -71.70836 | 13079 ft | 328 kts | 226° |
| 2026-05-08 17:47 | 46.55606 | -71.73280 | 13804 ft | 331 kts | 233° |
| 2026-05-08 17:47 | 46.54170 | -71.75911 | 14466 ft | 334 kts | 233° |
| 2026-05-08 17:47 | 46.53196 | -71.77703 | 14926 ft | 336 kts | 234° |
| 2026-05-08 17:48 | 46.51272 | -71.81254 | 15801 ft | 340 kts | 234° |
| 2026-05-08 17:48 | 46.49801 | -71.83959 | 16482 ft | 343 kts | 234° |
| 2026-05-08 17:48 | 46.48314 | -71.86686 | 17157 ft | 346 kts | 233° |
| 2026-05-08 17:48 | 46.46810 | -71.89438 | 17800 ft | 350 kts | 233° |
| 2026-05-08 17:49 | 46.45291 | -71.92215 | 18410 ft | 353 kts | 233° |
| 2026-05-08 17:49 | 46.43750 | -71.95021 | 18999 ft | 357 kts | 233° |
| 2026-05-08 17:49 | 46.42198 | -71.97845 | 19567 ft | 360 kts | 233° |
| 2026-05-08 17:49 | 46.40632 | -72.00701 | 20165 ft | 364 kts | 233° |
| 2026-05-08 17:50 | 46.39053 | -72.03582 | 20733 ft | 367 kts | 233° |
| 2026-05-08 17:50 | 46.37460 | -72.06490 | 21265 ft | 370 kts | 233° |
| 2026-05-08 17:50 | 46.35851 | -72.09418 | 21808 ft | 373 kts | 233° |
| 2026-05-08 17:50 | 46.34226 | -72.12367 | 22351 ft | 376 kts | 233° |
| 2026-05-08 17:51 | 46.32587 | -72.15338 | 22888 ft | 379 kts | 233° |
| 2026-05-08 17:51 | 46.30934 | -72.18332 | 23412 ft | 383 kts | 233° |
| 2026-05-08 17:51 | 46.29262 | -72.21345 | 23850 ft | 386 kts | 233° |
| 2026-05-08 17:51 | 46.27576 | -72.24376 | 24281 ft | 388 kts | 233° |
| 2026-05-08 17:52 | 46.25876 | -72.27433 | 24725 ft | 391 kts | 233° |
| 2026-05-08 17:52 | 46.24169 | -72.30505 | 25166 ft | 393 kts | 233° |
| 2026-05-08 17:52 | 46.20724 | -72.36705 | 26038 ft | 398 kts | 233° |
| 2026-05-08 17:53 | 46.18984 | -72.39832 | 26466 ft | 401 kts | 233° |
| 2026-05-08 17:53 | 46.17234 | -72.42975 | 26903 ft | 403 kts | 233° |
| 2026-05-08 17:53 | 46.15472 | -72.46136 | 27320 ft | 405 kts | 233° |
| 2026-05-08 17:53 | 46.13697 | -72.49311 | 27734 ft | 408 kts | 233° |
| 2026-05-08 17:54 | 46.11909 | -72.52505 | 28157 ft | 411 kts | 233° |
| 2026-05-08 17:54 | 46.10109 | -72.55717 | 28579 ft | 413 kts | 233° |
| 2026-05-08 17:54 | 46.08299 | -72.58948 | 28990 ft | 416 kts | 233° |
| 2026-05-08 17:54 | 46.06476 | -72.62198 | 29404 ft | 419 kts | 233° |
| 2026-05-08 17:55 | 46.04640 | -72.65467 | 29794 ft | 421 kts | 233° |
| 2026-05-08 17:55 | 46.02791 | -72.68750 | 30153 ft | 423 kts | 234° |
| 2026-05-08 17:55 | 46.00933 | -72.72048 | 30488 ft | 426 kts | 234° |
| 2026-05-08 17:55 | 45.99062 | -72.75362 | 30835 ft | 428 kts | 234° |
| 2026-05-08 17:56 | 45.97182 | -72.78688 | 31184 ft | 430 kts | 234° |
| 2026-05-08 17:56 | 45.95286 | -72.82032 | 31522 ft | 433 kts | 232° |
| 2026-05-08 17:56 | 45.93137 | -72.85078 | 31958 ft | 437 kts | 223° |
| 2026-05-08 17:56 | 45.90630 | -72.87565 | 32419 ft | 441 kts | 213° |
| 2026-05-08 17:57 | 45.87822 | -72.89393 | 32866 ft | 446 kts | 203° |
| 2026-05-08 17:57 | 45.84839 | -72.90505 | 33302 ft | 451 kts | 197° |
| 2026-05-08 17:57 | 45.81769 | -72.91437 | 33749 ft | 451 kts | 197° |
| 2026-05-08 17:57 | 45.78700 | -72.92376 | 34142 ft | 451 kts | 197° |
| 2026-05-08 17:58 | 45.75634 | -72.93324 | 34520 ft | 451 kts | 197° |
| 2026-05-08 17:58 | 45.72569 | -72.94274 | 34886 ft | 451 kts | 197° |
| 2026-05-08 17:58 | 45.69503 | -72.95222 | 35241 ft | 450 kts | 197° |
| 2026-05-08 17:58 | 45.66440 | -72.96169 | 35561 ft | 451 kts | 197° |
| 2026-05-08 17:59 | 45.63373 | -72.97117 | 35816 ft | 452 kts | 197° |
| 2026-05-08 17:59 | 45.57250 | -72.98999 | 35883 ft | 448 kts | 197° |
| 2026-05-08 18:00 | 45.51170 | -73.00850 | 35885 ft | 446 kts | 197° |
| 2026-05-08 18:00 | 45.42064 | -73.03625 | 35890 ft | 446 kts | 197° |
| 2026-05-08 18:01 | 45.35995 | -73.05475 | 35884 ft | 446 kts | 197° |
| 2026-05-08 18:01 | 45.29923 | -73.07316 | 35880 ft | 446 kts | 197° |
| 2026-05-08 18:02 | 45.24869 | -73.08841 | 35886 ft | 447 kts | 197° |
| 2026-05-08 18:02 | 45.17756 | -73.11000 | 35895 ft | 447 kts | 197° |
| 2026-05-08 18:03 | 45.11665 | -73.12831 | 35896 ft | 448 kts | 197° |
| 2026-05-08 18:03 | 45.05571 | -73.14662 | 35890 ft | 448 kts | 197° |
| 2026-05-08 18:04 | 44.99472 | -73.16492 | 35896 ft | 448 kts | 197° |
| 2026-05-08 18:04 | 44.93370 | -73.18323 | 35905 ft | 448 kts | 197° |
| 2026-05-08 18:05 | 44.87262 | -73.20146 | 35897 ft | 448 kts | 198° |
| 2026-05-08 18:05 | 44.81197 | -73.21960 | 35905 ft | 449 kts | 198° |
| 2026-05-08 18:06 | 44.75088 | -73.23778 | 35913 ft | 449 kts | 198° |
| 2026-05-08 18:06 | 44.68974 | -73.25594 | 35902 ft | 449 kts | 198° |
| 2026-05-08 18:07 | 44.62862 | -73.27405 | 35908 ft | 449 kts | 198° |
| 2026-05-08 18:07 | 44.56746 | -73.29212 | 35935 ft | 449 kts | 198° |
| 2026-05-08 18:08 | 44.50630 | -73.31011 | 35911 ft | 449 kts | 198° |
| 2026-05-08 18:08 | 44.44514 | -73.32814 | 35919 ft | 449 kts | 198° |
| 2026-05-08 18:09 | 44.38398 | -73.34618 | 35926 ft | 449 kts | 198° |
| 2026-05-08 18:09 | 44.32278 | -73.36413 | 35904 ft | 449 kts | 199° |
| 2026-05-08 18:10 | 44.26160 | -73.38208 | 35924 ft | 449 kts | 199° |
| 2026-05-08 18:10 | 44.20039 | -73.39991 | 35930 ft | 449 kts | 198° |
| 2026-05-08 18:11 | 44.13924 | -73.41768 | 35911 ft | 449 kts | 199° |
| 2026-05-08 18:11 | 44.07814 | -73.43542 | 35921 ft | 449 kts | 199° |
| 2026-05-08 18:12 | 44.01700 | -73.45315 | 35928 ft | 448 kts | 199° |
| 2026-05-08 18:12 | 43.95599 | -73.47083 | 35902 ft | 448 kts | 199° |
| 2026-05-08 18:13 | 43.89487 | -73.48849 | 35918 ft | 448 kts | 199° |
| 2026-05-08 18:13 | 43.83377 | -73.50604 | 35922 ft | 448 kts | 199° |
| 2026-05-08 18:14 | 43.77270 | -73.52357 | 35913 ft | 448 kts | 199° |
| 2026-05-08 18:14 | 43.71165 | -73.54115 | 35922 ft | 448 kts | 199° |
| 2026-05-08 18:15 | 43.65062 | -73.55867 | 35934 ft | 448 kts | 199° |
| 2026-05-08 18:15 | 43.58961 | -73.57612 | 35928 ft | 448 kts | 199° |
| 2026-05-08 18:16 | 43.52851 | -73.59350 | 35931 ft | 448 kts | 199° |
| 2026-05-08 18:16 | 43.46789 | -73.61079 | 35929 ft | 448 kts | 199° |
| 2026-05-08 18:17 | 43.40685 | -73.62811 | 35902 ft | 448 kts | 199° |
| 2026-05-08 18:17 | 43.34589 | -73.64537 | 35919 ft | 447 kts | 199° |
| 2026-05-08 18:18 | 43.28498 | -73.66265 | 35924 ft | 447 kts | 199° |
| 2026-05-08 18:18 | 43.22413 | -73.67991 | 35906 ft | 446 kts | 200° |
| 2026-05-08 18:19 | 43.16293 | -73.69711 | 35931 ft | 446 kts | 200° |
| 2026-05-08 18:19 | 43.10219 | -73.71408 | 35947 ft | 445 kts | 200° |
| 2026-05-08 18:20 | 43.04192 | -73.73097 | 35938 ft | 445 kts | 200° |
| 2026-05-08 18:20 | 42.98137 | -73.74795 | 35956 ft | 444 kts | 200° |
| 2026-05-08 18:21 | 42.92087 | -73.76481 | 35963 ft | 444 kts | 200° |
| 2026-05-08 18:21 | 42.86045 | -73.78176 | 35935 ft | 443 kts | 200° |
| 2026-05-08 18:22 | 42.80984 | -73.79590 | 35947 ft | 443 kts | 200° |
| 2026-05-08 18:22 | 42.74927 | -73.81171 | 35966 ft | 448 kts | 195° |
| 2026-05-08 18:23 | 42.68654 | -73.81376 | 35967 ft | 456 kts | 188° |
| 2026-05-08 18:23 | 42.62314 | -73.81390 | 35959 ft | 455 kts | 189° |
| 2026-05-08 18:24 | 42.55979 | -73.81415 | 35964 ft | 455 kts | 189° |
| 2026-05-08 18:24 | 42.49637 | -73.81435 | 35967 ft | 455 kts | 189° |
| 2026-05-08 18:25 | 42.43303 | -73.81447 | 35938 ft | 455 kts | 189° |
| 2026-05-08 18:25 | 42.36975 | -73.81476 | 35954 ft | 455 kts | 189° |
| 2026-05-08 18:26 | 42.30650 | -73.81509 | 35960 ft | 455 kts | 189° |
| 2026-05-08 18:26 | 42.24325 | -73.81533 | 35922 ft | 454 kts | 189° |
| 2026-05-08 18:27 | 42.19077 | -73.81552 | 35938 ft | 454 kts | 189° |
| 2026-05-08 18:27 | 42.11689 | -73.81581 | 35947 ft | 454 kts | 189° |
| 2026-05-08 18:28 | 42.05386 | -73.81656 | 35885 ft | 448 kts | 193° |
| 2026-05-08 18:28 | 42.02345 | -73.82182 | 35411 ft | 435 kts | 202° |
| 2026-05-08 18:28 | 41.99483 | -73.83295 | 34842 ft | 422 kts | 211° |
| 2026-05-08 18:29 | 41.96867 | -73.84954 | 34269 ft | 411 kts | 219° |
| 2026-05-08 18:29 | 41.94377 | -73.86818 | 33801 ft | 408 kts | 219° |
| 2026-05-08 18:29 | 41.91902 | -73.88653 | 33312 ft | 405 kts | 219° |
| 2026-05-08 18:29 | 41.89450 | -73.90462 | 32825 ft | 401 kts | 219° |
| 2026-05-08 18:30 | 41.87016 | -73.92256 | 32285 ft | 397 kts | 220° |
| 2026-05-08 18:30 | 41.84605 | -73.94033 | 31806 ft | 393 kts | 220° |
| 2026-05-08 18:30 | 41.82214 | -73.95790 | 31334 ft | 390 kts | 220° |
| 2026-05-08 18:30 | 41.79846 | -73.97530 | 30862 ft | 387 kts | 220° |
| 2026-05-08 18:31 | 41.77496 | -73.99254 | 30397 ft | 384 kts | 220° |
| 2026-05-08 18:31 | 41.75165 | -74.00964 | 29916 ft | 381 kts | 220° |
| 2026-05-08 18:31 | 41.72736 | -74.02468 | 29359 ft | 389 kts | 211° |
| 2026-05-08 18:31 | 41.70096 | -74.03440 | 28847 ft | 400 kts | 201° |
| 2026-05-08 18:32 | 41.67319 | -74.03928 | 28333 ft | 403 kts | 198° |
| 2026-05-08 18:32 | 41.64543 | -74.04350 | 27830 ft | 400 kts | 198° |
| 2026-05-08 18:32 | 41.61786 | -74.04764 | 27353 ft | 397 kts | 198° |
| 2026-05-08 18:32 | 41.59084 | -74.05170 | 26900 ft | 395 kts | 198° |
| 2026-05-08 18:33 | 41.56365 | -74.05580 | 26446 ft | 392 kts | 198° |
| 2026-05-08 18:33 | 41.53663 | -74.05992 | 26018 ft | 389 kts | 198° |
| 2026-05-08 18:33 | 41.50981 | -74.06404 | 25594 ft | 387 kts | 198° |
| 2026-05-08 18:33 | 41.48318 | -74.06817 | 25131 ft | 384 kts | 198° |
| 2026-05-08 18:34 | 41.45692 | -74.07225 | 24940 ft | 375 kts | 198° |
| 2026-05-08 18:34 | 41.43134 | -74.07614 | 24725 ft | 366 kts | 198° |
| 2026-05-08 18:34 | 41.40613 | -74.07999 | 24377 ft | 363 kts | 198° |
| 2026-05-08 18:34 | 41.38135 | -74.08444 | 24010 ft | 354 kts | 203° |
| 2026-05-08 18:35 | 41.35804 | -74.09300 | 23646 ft | 341 kts | 212° |
| 2026-05-08 18:35 | 41.33681 | -74.10560 | 23199 ft | 328 kts | 220° |
| 2026-05-08 18:35 | 41.31771 | -74.12134 | 22756 ft | 321 kts | 224° |
| 2026-05-08 18:35 | 41.29899 | -74.13750 | 22263 ft | 320 kts | 224° |
| 2026-05-08 18:36 | 41.28034 | -74.15342 | 21835 ft | 317 kts | 223° |
| 2026-05-08 18:36 | 41.26183 | -74.16918 | 21417 ft | 315 kts | 223° |
| 2026-05-08 18:36 | 41.24342 | -74.18490 | 20966 ft | 314 kts | 223° |
| 2026-05-08 18:36 | 41.22509 | -74.20052 | 20537 ft | 312 kts | 223° |
| 2026-05-08 18:37 | 41.20685 | -74.21600 | 20121 ft | 310 kts | 223° |
| 2026-05-08 18:37 | 41.18872 | -74.23139 | 19714 ft | 309 kts | 223° |
| 2026-05-08 18:37 | 41.17061 | -74.24675 | 19291 ft | 308 kts | 223° |
| 2026-05-08 18:37 | 41.15259 | -74.26201 | 18997 ft | 305 kts | 223° |
| 2026-05-08 18:38 | 41.13470 | -74.27718 | 18955 ft | 306 kts | 223° |
| 2026-05-08 18:38 | 41.11672 | -74.29245 | 18958 ft | 307 kts | 223° |
| 2026-05-08 18:38 | 41.09872 | -74.30780 | 18953 ft | 308 kts | 222° |
| 2026-05-08 18:38 | 41.08074 | -74.32315 | 18959 ft | 308 kts | 222° |
| 2026-05-08 18:39 | 41.06153 | -74.33649 | 18962 ft | 321 kts | 207° |
| 2026-05-08 18:39 | 41.03869 | -74.33983 | 18962 ft | 345 kts | 182° |
| 2026-05-08 18:39 | 41.01538 | -74.32927 | 18962 ft | 369 kts | 154° |
| 2026-05-08 18:39 | 40.99656 | -74.30548 | 18962 ft | 382 kts | 130° |
| 2026-05-08 18:40 | 40.98119 | -74.27657 | 18962 ft | 385 kts | 127° |
| 2026-05-08 18:40 | 40.96658 | -74.24692 | 18961 ft | 385 kts | 127° |
| 2026-05-08 18:40 | 40.95183 | -74.21729 | 18962 ft | 385 kts | 125° |
| 2026-05-08 18:40 | 40.93765 | -74.18719 | 18961 ft | 386 kts | 124° |
| 2026-05-08 18:41 | 40.92361 | -74.15701 | 18959 ft | 386 kts | 124° |
| 2026-05-08 18:41 | 40.90948 | -74.12701 | 18676 ft | 383 kts | 125° |
| 2026-05-08 18:41 | 40.89442 | -74.09831 | 18331 ft | 376 kts | 137° |
| 2026-05-08 18:41 | 40.87439 | -74.07758 | 17926 ft | 359 kts | 161° |
| 2026-05-08 18:42 | 40.85142 | -74.06744 | 17533 ft | 343 kts | 176° |
| 2026-05-08 18:42 | 40.82816 | -74.06109 | 17138 ft | 340 kts | 177° |
| 2026-05-08 18:42 | 40.80502 | -74.05518 | 16761 ft | 338 kts | 177° |
| 2026-05-08 18:42 | 40.78205 | -74.04941 | 16397 ft | 335 kts | 177° |
| 2026-05-08 18:43 | 40.75921 | -74.04372 | 16072 ft | 333 kts | 177° |
| 2026-05-08 18:43 | 40.73650 | -74.03811 | 15744 ft | 331 kts | 177° |
| 2026-05-08 18:43 | 40.71408 | -74.03263 | 15412 ft | 329 kts | 177° |
| 2026-05-08 18:43 | 40.69153 | -74.02720 | 15091 ft | 327 kts | 177° |
| 2026-05-08 18:44 | 40.66919 | -74.02188 | 14786 ft | 325 kts | 177° |
| 2026-05-08 18:44 | 40.64700 | -74.01664 | 14453 ft | 324 kts | 178° |
| 2026-05-08 18:44 | 40.62478 | -74.01116 | 14079 ft | 326 kts | 178° |
| 2026-05-08 18:44 | 40.60253 | -74.00560 | 13741 ft | 325 kts | 177° |
| 2026-05-08 18:45 | 40.58065 | -74.00018 | 13434 ft | 323 kts | 177° |
| 2026-05-08 18:45 | 40.55839 | -73.99482 | 13136 ft | 319 kts | 177° |
| 2026-05-08 18:45 | 40.53661 | -73.98964 | 12834 ft | 316 kts | 177° |
| 2026-05-08 18:45 | 40.51550 | -73.98375 | 12266 ft | 317 kts | 167° |
| 2026-05-08 18:46 | 40.49635 | -73.96891 | 11678 ft | 325 kts | 142° |
| 2026-05-08 18:46 | 40.48023 | -73.94816 | 11083 ft | 323 kts | 138° |
| 2026-05-08 18:46 | 40.46476 | -73.92695 | 10521 ft | 320 kts | 137° |
| 2026-05-08 18:46 | 40.44954 | -73.90597 | 9982 ft | 315 kts | 137° |
| 2026-05-08 18:47 | 40.43436 | -73.88497 | 9406 ft | 311 kts | 137° |
| 2026-05-08 18:47 | 40.41964 | -73.86447 | 8790 ft | 307 kts | 137° |
| 2026-05-08 18:47 | 40.40524 | -73.84438 | 8261 ft | 307 kts | 137° |
| 2026-05-08 18:47 | 40.39046 | -73.82378 | 8028 ft | 304 kts | 137° |
| 2026-05-08 18:48 | 40.37620 | -73.80388 | 7990 ft | 304 kts | 137° |
| 2026-05-08 18:48 | 40.36166 | -73.78358 | 8002 ft | 305 kts | 136° |
| 2026-05-08 18:48 | 40.34998 | -73.76028 | 7999 ft | 311 kts | 112° |
| 2026-05-08 18:48 | 40.34653 | -73.73246 | 8000 ft | 311 kts | 85° |
| 2026-05-08 18:49 | 40.35205 | -73.70542 | 7998 ft | 306 kts | 59° |
| 2026-05-08 18:49 | 40.36457 | -73.68354 | 7999 ft | 297 kts | 36° |
| 2026-05-08 18:49 | 40.38132 | -73.66842 | 8000 ft | 291 kts | 25° |
| 2026-05-08 18:49 | 40.39862 | -73.65452 | 8015 ft | 292 kts | 25° |
| 2026-05-08 18:50 | 40.41593 | -73.64054 | 8010 ft | 292 kts | 25° |
| 2026-05-08 18:50 | 40.43322 | -73.62649 | 8002 ft | 292 kts | 25° |
| 2026-05-08 18:50 | 40.45049 | -73.61242 | 8002 ft | 292 kts | 25° |
| 2026-05-08 18:50 | 40.46776 | -73.59835 | 8003 ft | 292 kts | 25° |
| 2026-05-08 18:51 | 40.48504 | -73.58426 | 8002 ft | 292 kts | 25° |
| 2026-05-08 18:51 | 40.50226 | -73.57022 | 7857 ft | 289 kts | 25° |
| 2026-05-08 18:51 | 40.51928 | -73.55645 | 7216 ft | 286 kts | 24° |
| 2026-05-08 18:51 | 40.53457 | -73.53939 | 6594 ft | 296 kts | 49° |
| 2026-05-08 18:52 | 40.54557 | -73.51638 | 5951 ft | 297 kts | 57° |
| 2026-05-08 18:52 | 40.55570 | -73.49285 | 5345 ft | 295 kts | 57° |
| 2026-05-08 18:52 | 40.56573 | -73.46955 | 4785 ft | 291 kts | 57° |
| 2026-05-08 18:52 | 40.57563 | -73.44662 | 4231 ft | 286 kts | 57° |
| 2026-05-08 18:53 | 40.58546 | -73.42404 | 3639 ft | 284 kts | 57° |
| 2026-05-08 18:53 | 40.59358 | -73.40036 | 3321 ft | 285 kts | 77° |
| 2026-05-08 18:53 | 40.59349 | -73.37464 | 3004 ft | 282 kts | 106° |
| 2026-05-08 18:53 | 40.58470 | -73.35226 | 2694 ft | 273 kts | 136° |
| 2026-05-08 18:54 | 40.56958 | -73.33836 | 2359 ft | 262 kts | 165° |
| 2026-05-08 18:54 | 40.55205 | -73.33599 | 2015 ft | 248 kts | 195° |
| 2026-05-08 18:54 | 40.53703 | -73.34563 | 1979 ft | 242 kts | 226° |
| 2026-05-08 18:54 | 40.52826 | -73.36394 | 1982 ft | 238 kts | 256° |
| 2026-05-08 18:55 | 40.52719 | -73.40710 | 1983 ft | 240 kts | 279° |
| 2026-05-08 18:55 | 40.52980 | -73.42874 | 1983 ft | 240 kts | 278° |
| 2026-05-08 18:55 | 40.53235 | -73.45027 | 1983 ft | 238 kts | 278° |
| 2026-05-08 18:56 | 40.53485 | -73.47176 | 1984 ft | 238 kts | 278° |
| 2026-05-08 18:56 | 40.53731 | -73.49288 | 1980 ft | 232 kts | 278° |
| 2026-05-08 18:56 | 40.53970 | -73.51313 | 1978 ft | 216 kts | 278° |
| 2026-05-08 18:56 | 40.54239 | -73.53177 | 1979 ft | 200 kts | 287° |
| 2026-05-08 18:57 | 40.54786 | -73.54774 | 1991 ft | 184 kts | 296° |
| 2026-05-08 18:57 | 40.55201 | -73.55745 | 1992 ft | 178 kts | 297° |
| 2026-05-08 18:57 | 40.56010 | -73.57548 | 2007 ft | 163 kts | 298° |
| 2026-05-08 18:57 | 40.56555 | -73.58744 | 2001 ft | 142 kts | 297° |
| 2026-05-08 18:58 | 40.57043 | -73.59816 | 2010 ft | 131 kts | 297° |
| 2026-05-08 18:58 | 40.57502 | -73.60825 | 2001 ft | 127 kts | 297° |
| 2026-05-08 18:58 | 40.57947 | -73.61803 | 1998 ft | 126 kts | 297° |
| 2026-05-08 18:58 | 40.58395 | -73.62786 | 1998 ft | 125 kts | 297° |
| 2026-05-08 18:59 | 40.58843 | -73.63771 | 1997 ft | 125 kts | 297° |
| 2026-05-08 18:59 | 40.59292 | -73.64756 | 1950 ft | 126 kts | 297° |
| 2026-05-08 18:59 | 40.59741 | -73.65742 | 1849 ft | 125 kts | 297° |
| 2026-05-08 18:59 | 40.60188 | -73.66724 | 1718 ft | 125 kts | 297° |
| 2026-05-08 19:00 | 40.60490 | -73.67386 | 1592 ft | 124 kts | 297° |
| 2026-05-08 19:00 | 40.61078 | -73.68677 | 1385 ft | 124 kts | 296° |
| 2026-05-08 19:00 | 40.61518 | -73.69645 | 1217 ft | 123 kts | 296° |
| 2026-05-08 19:00 | 40.61959 | -73.70623 | 1043 ft | 124 kts | 296° |
| 2026-05-08 19:01 | 40.62403 | -73.71590 | 870 ft | 123 kts | 296° |
| 2026-05-08 19:01 | 40.62861 | -73.72568 | 694 ft | 127 kts | 296° |
| 2026-05-08 19:01 | 40.63303 | -73.73552 | 526 ft | 123 kts | 294° |
| 2026-05-08 19:01 | 40.63741 | -73.74534 | 333 ft | 124 kts | 295° |
| 2026-05-08 19:02 | 40.64182 | -73.75501 | 171 ft | 123 kts | 296° |
| 2026-05-08 19:02 | 40.64617 | -73.76465 | 45 ft | 121 kts | 297° |
| 2026-05-08 19:02 | 40.64985 | -73.77286 | 21 ft | 82 kts | 300° |
| 2026-05-08 19:02 | 40.65187 | -73.77734 | 19 ft | 32 kts | 301° |
| 2026-05-08 19:03 | 40.65233 | -73.77868 | 20 ft | 12 kts | 265° |
| 2026-05-08 19:03 | 40.65190 | -73.77944 | 20 ft | 6 kts | 210° |
| 2026-05-08 19:03 | 40.65186 | -73.77947 | 20 ft | 0 kts | 210° |
| 2026-05-08 19:04 | 40.65182 | -73.77951 | 20 ft | 2 kts | 218° |
| 2026-05-08 19:04 | 40.65184 | -73.77984 | 20 ft | 5 kts | 300° |
| 2026-05-08 19:04 | 40.65211 | -73.78040 | 20 ft | 9 kts | 299° |
| 2026-05-08 19:05 | 40.65219 | -73.78109 | 23 ft | 8 kts | 238° |
| 2026-05-08 19:05 | 40.65181 | -73.78163 | 20 ft | 6 kts | 257° |
| 2026-05-08 19:05 | 40.65199 | -73.78224 | 22 ft | 7 kts | 302° |
| 2026-05-08 19:05 | 40.65205 | -73.78235 | 21 ft | 2 kts | 302° |
| 2026-05-08 19:06 | 40.65235 | -73.78299 | 21 ft | 14 kts | 301° |
| 2026-05-08 19:06 | 40.65254 | -73.78388 | 20 ft | 6 kts | 234° |
| 2026-05-08 19:06 | 40.65207 | -73.78410 | 23 ft | 8 kts | 188° |
| 2026-05-08 19:06 | 40.65175 | -73.78396 | 20 ft | 5 kts | 149° |
| 2026-05-08 19:07 | 40.65147 | -73.78376 | 20 ft | 4 kts | 153° |
| 2026-05-08 19:07 | 40.65131 | -73.78366 | 20 ft | 2 kts | 154° |
| 2026-05-08 19:07 | 40.65128 | -73.78364 | 22 ft | 0 kts | 155° |